createdAt,value
2022-10-15T08:31:26.336Z,14.18
2022-10-15T08:32:28.364Z,14.16
2022-10-15T08:33:33.562Z,14.16
2022-10-15T08:34:35.850Z,14.23
2022-10-15T08:35:46.417Z,14.20
2022-10-15T08:36:51.080Z,14.25
2022-10-15T08:37:54.199Z,14.19
2022-10-15T08:38:59.139Z,14.36
2022-10-15T08:40:01.169Z,14.31
2022-10-15T08:41:09.221Z,14.36
2022-10-15T08:42:22.067Z,14.32
2022-10-15T08:43:28.675Z,14.30
2022-10-15T08:44:37.667Z,14.41
2022-10-15T08:45:45.236Z,14.35
2022-10-15T08:46:55.745Z,14.31
2022-10-15T08:48:01.411Z,14.31
2022-10-15T08:49:07.805Z,14.30
2022-10-15T08:50:20.438Z,13.89
2022-10-15T08:51:27.931Z,13.91
2022-10-15T08:52:42.595Z,13.92
2022-10-15T08:53:51.423Z,13.94
2022-10-15T08:54:55.511Z,13.93
2022-10-15T08:56:06.216Z,13.81
2022-10-15T08:57:18.468Z,13.91
2022-10-15T08:58:30.435Z,13.77
2022-10-15T08:59:42.713Z,13.81
2022-10-15T09:00:53.089Z,13.71
2022-10-15T09:02:03.739Z,13.64
2022-10-15T09:03:21.379Z,13.49
2022-10-15T09:04:33.829Z,13.42
2022-10-15T09:05:43.508Z,13.38
2022-10-15T09:06:49.980Z,13.33
2022-10-15T09:07:57.731Z,13.33
2022-10-15T09:09:09.280Z,13.40
2022-10-15T09:10:15.330Z,13.43
2022-10-15T09:11:26.563Z,13.50
2022-10-15T09:12:41.665Z,13.46
2022-10-15T09:13:48.030Z,13.50
2022-10-15T09:14:51.003Z,13.53
2022-10-15T09:16:00.399Z,13.50
2022-10-15T09:17:17.194Z,13.48
2022-10-15T09:18:23.725Z,13.50
2022-10-15T09:19:31.927Z,13.50
2022-10-15T09:20:36.787Z,13.53
2022-10-15T09:21:41.803Z,13.45
2022-10-15T09:22:44.739Z,13.48
2022-10-15T09:23:49.780Z,13.55
2022-10-15T09:24:51.971Z,13.55
2022-10-15T09:26:05.025Z,13.61
2022-10-15T09:27:13.007Z,13.56
2022-10-15T09:28:21.431Z,13.59
2022-10-15T09:29:33.526Z,13.58
2022-10-15T09:30:42.766Z,13.64
2022-10-15T09:32:03.042Z,13.70
2022-10-15T09:33:19.361Z,13.52
2022-10-15T09:34:26.706Z,13.45
2022-10-15T09:35:36.499Z,13.44
2022-10-15T09:36:44.996Z,13.43
2022-10-15T09:38:02.149Z,13.41
2022-10-15T09:39:27.907Z,13.47
2022-10-15T09:40:49.829Z,13.43
2022-10-15T09:42:01.923Z,13.46
2022-10-15T09:43:08.973Z,13.50
2022-10-15T09:44:13.993Z,13.54
2022-10-15T09:45:21.461Z,13.56
2022-10-15T09:46:26.359Z,13.57
2022-10-15T09:47:32.913Z,13.61
2022-10-15T09:48:46.456Z,13.62
2022-10-15T09:49:51.748Z,13.61
2022-10-15T09:51:03.133Z,13.59
2022-10-15T09:52:13.080Z,13.63
2022-10-15T09:53:27.543Z,13.72
2022-10-15T09:54:46.101Z,13.69
2022-10-15T09:55:55.045Z,13.73
2022-10-15T09:56:58.963Z,13.71
2022-10-15T09:58:09.720Z,13.82
2022-10-15T09:59:19.524Z,13.82
2022-10-15T10:00:24.355Z,13.90
2022-10-15T10:01:30.580Z,13.84
2022-10-15T10:02:32.676Z,13.81
2022-10-15T10:03:40.818Z,13.77
2022-10-15T10:04:42.891Z,13.78
2022-10-15T10:05:48.597Z,13.84
2022-10-15T10:06:54.007Z,13.78
2022-10-15T10:08:12.407Z,13.73
2022-10-15T10:09:17.992Z,13.71
2022-10-15T10:10:28.318Z,13.79
2022-10-15T10:11:50.953Z,13.84
2022-10-15T10:12:57.432Z,13.88
2022-10-15T10:14:00.989Z,13.95
2022-10-15T10:15:09.901Z,13.98
2022-10-15T10:16:14.037Z,14.04
2022-10-15T10:17:22.763Z,14.10
2022-10-15T10:18:25.943Z,14.10
2022-10-15T10:19:33.435Z,14.15
2022-10-15T10:20:38.276Z,14.14
2022-10-15T10:21:46.337Z,14.10
2022-10-15T10:22:52.766Z,14.15
2022-10-15T10:23:54.931Z,14.18
2022-10-15T10:24:59.627Z,14.26
2022-10-15T10:26:03.718Z,14.13
2022-10-15T10:27:24.794Z,14.15
2022-10-15T10:28:34.851Z,14.08
2022-10-15T10:29:40.820Z,14.08
2022-10-15T10:30:54.534Z,14.13
2022-10-15T10:31:57.487Z,14.17
2022-10-15T10:33:04.010Z,14.20
2022-10-15T10:34:06.234Z,14.19
2022-10-15T10:35:24.050Z,14.27
2022-10-15T10:36:31.795Z,14.40
2022-10-15T10:37:42.675Z,14.38
2022-10-15T10:38:58.692Z,14.37
2022-10-15T10:40:03.913Z,14.50
2022-10-15T10:41:11.017Z,14.54
2022-10-15T10:42:26.462Z,14.53
2022-10-15T10:43:36.764Z,14.44
2022-10-15T10:44:47.059Z,14.63
2022-10-15T10:45:57.752Z,14.67
2022-10-15T10:47:12.332Z,14.91
2022-10-15T10:48:20.635Z,15.05
2022-10-15T10:49:33.822Z,15.20
2022-10-15T10:50:41.089Z,15.43
2022-10-15T10:51:52.575Z,15.66
2022-10-15T10:52:54.762Z,15.68
2022-10-15T10:54:01.877Z,15.82
2022-10-15T10:55:07.135Z,15.74
2022-10-15T10:56:15.686Z,15.69
2022-10-15T10:57:26.875Z,15.75
2022-10-15T10:58:36.117Z,15.59
2022-10-15T10:59:45.144Z,15.70
2022-10-15T11:00:52.508Z,15.81
2022-10-15T11:01:58.474Z,15.75
2022-10-15T11:03:03.925Z,15.95
2022-10-15T11:04:18.672Z,15.97
2022-10-15T11:05:28.130Z,15.95
2022-10-15T11:07:00.382Z,16.04
2022-10-15T11:08:11.930Z,16.33
2022-10-15T11:09:33.574Z,16.41
2022-10-15T11:10:42.379Z,16.40
2022-10-15T11:11:55.503Z,16.43
2022-10-15T11:13:06.983Z,15.91
2022-10-15T11:14:22.330Z,15.80
2022-10-15T11:15:35.705Z,15.67
2022-10-15T11:16:48.919Z,15.88
2022-10-15T11:17:55.781Z,15.95
2022-10-15T11:19:19.703Z,15.89
2022-10-15T11:20:59.615Z,15.99
2022-10-15T11:22:38.597Z,15.88
2022-10-15T11:24:09.052Z,15.86
2022-10-15T11:25:22.749Z,15.90
2022-10-15T11:26:46.166Z,15.82
2022-10-15T11:28:08.646Z,15.70
2022-10-15T11:29:22.561Z,15.55
2022-10-15T11:30:41.307Z,15.41
2022-10-15T11:32:02.463Z,15.55
2022-10-15T11:33:31.924Z,15.62
2022-10-15T11:34:53.193Z,15.62
2022-10-15T11:36:06.167Z,15.64
2022-10-15T11:37:24.723Z,15.49
2022-10-15T11:38:39.495Z,15.49
2022-10-15T11:39:59.536Z,15.58
2022-10-15T11:41:18.432Z,15.74
2022-10-15T11:42:28.328Z,15.83
2022-10-15T11:43:44.213Z,15.80
2022-10-15T11:45:12.998Z,15.77
2022-10-15T11:46:25.417Z,15.87
2022-10-15T11:47:41.542Z,15.92
2022-10-15T11:49:00.566Z,16.05
2022-10-15T11:50:14.597Z,16.20
2022-10-15T11:51:28.857Z,16.21
2022-10-15T11:52:49.250Z,16.25
2022-10-15T11:54:24.760Z,16.34
2022-10-15T11:55:35.651Z,16.31
2022-10-15T11:56:44.000Z,16.29
2022-10-15T11:57:50.052Z,15.95
2022-10-15T12:00:35.075Z,15.82
2022-10-15T12:01:41.936Z,16.09
2022-10-15T12:02:47.150Z,16.39
2022-10-15T12:03:56.702Z,16.50
2022-10-15T12:05:01.467Z,16.60
2022-10-15T12:06:10.267Z,16.39
2022-10-15T12:07:21.294Z,16.56
2022-10-15T12:08:29.494Z,16.65
2022-10-15T12:09:38.407Z,16.65
2022-10-15T12:10:59.449Z,16.60
2022-10-15T12:12:07.625Z,16.65
2022-10-15T12:13:20.861Z,16.87
2022-10-15T12:14:28.647Z,16.84
2022-10-15T12:15:42.586Z,16.75
2022-10-15T12:16:53.818Z,16.67
2022-10-15T12:18:06.658Z,16.65
2022-10-15T12:19:16.239Z,17.19
2022-10-15T12:20:24.188Z,17.60
2022-10-15T12:21:35.874Z,17.85
2022-10-15T12:22:43.049Z,17.85
2022-10-15T12:23:45.184Z,17.73
2022-10-15T12:24:57.651Z,17.55
2022-10-15T12:25:59.808Z,17.59
2022-10-15T12:27:18.747Z,17.63
2022-10-15T12:28:26.853Z,17.72
2022-10-15T12:29:29.243Z,17.64
2022-10-15T12:30:37.108Z,17.96
2022-10-15T12:31:50.315Z,18.60
2022-10-15T12:32:55.654Z,18.89
2022-10-15T12:33:58.298Z,18.56
2022-10-15T12:35:05.329Z,18.63
2022-10-15T12:36:28.331Z,18.07
2022-10-15T12:37:37.267Z,17.76
2022-10-15T12:38:44.025Z,17.86
2022-10-15T12:39:52.591Z,17.87
2022-10-15T12:41:07.111Z,17.99
2022-10-15T12:42:25.058Z,17.54
2022-10-15T12:43:28.194Z,17.45
2022-10-15T12:44:35.730Z,17.56
2022-10-15T12:45:40.729Z,17.32
2022-10-15T12:46:45.773Z,17.34
2022-10-15T12:47:50.477Z,17.34
2022-10-15T12:48:58.244Z,17.43
2022-10-15T12:50:03.893Z,17.34
2022-10-15T12:51:32.918Z,17.37
2022-10-15T12:53:00.601Z,17.14
2022-10-15T12:54:02.768Z,17.30
2022-10-15T12:55:24.162Z,17.27
2022-10-15T12:56:36.905Z,16.95
2022-10-15T12:57:56.365Z,16.91
2022-10-15T12:59:01.051Z,16.93
2022-10-15T13:00:24.616Z,16.73
2022-10-15T13:01:52.516Z,16.92
2022-10-15T13:02:56.150Z,16.94
2022-10-15T13:04:03.997Z,16.95
2022-10-15T13:05:10.440Z,16.87
2022-10-15T13:06:34.933Z,17.08
2022-10-15T13:07:41.703Z,17.34
2022-10-15T13:08:48.782Z,17.35
2022-10-15T13:09:55.127Z,17.45
2022-10-15T13:10:59.582Z,17.52
2022-10-15T13:12:07.399Z,17.53
2022-10-15T13:13:17.553Z,17.63
2022-10-15T13:14:31.189Z,17.48
2022-10-15T13:15:34.950Z,17.70
2022-10-15T13:16:40.297Z,17.51
2022-10-15T13:17:47.818Z,17.46
2022-10-15T13:18:59.640Z,17.40
2022-10-15T13:20:04.596Z,17.22
2022-10-15T13:21:11.400Z,17.19
2022-10-15T13:22:26.422Z,17.26
2022-10-15T13:23:31.002Z,17.08
2022-10-15T13:24:43.800Z,17.24
2022-10-15T13:25:45.944Z,17.05
2022-10-15T13:26:51.476Z,17.24
2022-10-15T13:27:56.157Z,17.04
2022-10-15T13:29:02.484Z,17.09
2022-10-15T13:30:10.428Z,17.09
2022-10-15T13:31:35.382Z,17.02
2022-10-15T13:32:46.224Z,16.85
2022-10-15T13:33:52.464Z,16.78
2022-10-15T13:34:59.970Z,16.91
2022-10-15T13:36:07.511Z,16.85
2022-10-15T13:37:22.253Z,16.95
2022-10-15T13:38:28.299Z,16.75
2022-10-15T13:39:36.452Z,16.59
2022-10-15T13:40:39.899Z,16.62
2022-10-15T13:41:45.731Z,16.59
2022-10-15T13:43:06.565Z,16.50
2022-10-15T13:44:24.389Z,16.22
2022-10-15T13:45:27.343Z,16.24
2022-10-15T13:46:36.176Z,16.02
2022-10-15T13:47:42.743Z,15.86
2022-10-15T13:48:48.459Z,15.64
2022-10-15T13:49:51.322Z,15.62
2022-10-15T13:50:58.995Z,15.56
2022-10-15T13:52:02.696Z,15.28
2022-10-15T13:53:17.103Z,15.03
2022-10-15T13:54:25.652Z,14.97
2022-10-15T13:55:33.917Z,14.82
2022-10-15T13:56:36.707Z,14.63
2022-10-15T13:57:47.326Z,14.50
2022-10-15T13:58:57.709Z,14.36
2022-10-15T14:00:04.971Z,14.25
2022-10-15T14:01:13.421Z,14.25
2022-10-15T14:02:19.573Z,14.14
2022-10-15T14:03:24.538Z,14.19
2022-10-15T14:08:25.276Z,14.19
2022-10-15T14:09:35.145Z,14.15
2022-10-15T14:10:38.480Z,14.08
2022-10-15T14:11:45.084Z,14.08
2022-10-15T14:12:52.277Z,14.09
2022-10-15T14:14:02.458Z,14.20
2022-10-15T14:15:34.905Z,14.15
2022-10-15T14:16:49.067Z,14.13
2022-10-15T14:17:52.500Z,14.27
2022-10-15T14:19:01.681Z,14.27
2022-10-15T14:20:27.334Z,14.17
2022-10-15T14:21:33.094Z,14.05
2022-10-15T14:22:36.397Z,14.02
2022-10-15T14:23:43.484Z,14.10
2022-10-15T14:24:53.085Z,14.06
2022-10-15T14:25:58.595Z,14.14
2022-10-15T14:27:11.236Z,14.09
2022-10-15T14:28:21.048Z,14.09
2022-10-15T14:29:30.574Z,14.07
2022-10-15T14:30:36.744Z,14.00
2022-10-15T14:31:48.404Z,14.01
2022-10-15T14:32:53.116Z,14.02
2022-10-15T14:34:02.787Z,13.99
2022-10-15T14:35:10.083Z,13.97
2022-10-15T14:36:28.867Z,14.02
2022-10-15T14:37:41.408Z,13.99
2022-10-15T14:38:47.469Z,13.94
2022-10-15T14:39:50.517Z,13.84
2022-10-15T14:41:07.165Z,13.84
2022-10-15T14:42:31.439Z,13.82
2022-10-15T14:43:35.665Z,13.86
2022-10-15T14:44:50.820Z,13.84
2022-10-15T14:45:58.617Z,13.84
2022-10-15T14:47:06.566Z,13.86
2022-10-15T14:48:11.450Z,13.90
2022-10-15T14:49:30.365Z,13.83
2022-10-15T14:50:35.818Z,13.77
2022-10-15T14:51:42.014Z,13.84
2022-10-15T14:52:50.537Z,13.76
2022-10-15T14:53:55.477Z,13.70
2022-10-15T14:55:13.133Z,13.71
2022-10-15T14:56:20.730Z,13.63
2022-10-15T14:57:34.717Z,13.63
2022-10-15T14:58:52.367Z,13.60
2022-10-15T15:00:04.402Z,13.59
2022-10-15T15:01:08.785Z,13.60
2022-10-15T15:02:20.145Z,13.62
2022-10-15T15:03:30.635Z,13.63
2022-10-15T15:04:52.659Z,13.61
2022-10-15T15:06:01.247Z,13.63
2022-10-15T15:07:23.586Z,13.64
2022-10-15T15:08:30.297Z,13.60
2022-10-15T15:09:36.532Z,13.65
2022-10-15T15:10:43.248Z,13.64
2022-10-15T15:11:51.082Z,13.62
2022-10-15T15:13:04.790Z,13.63
2022-10-15T15:14:25.795Z,13.65
2022-10-15T15:15:30.535Z,13.64
2022-10-15T15:16:35.209Z,13.62
2022-10-15T15:17:37.349Z,13.66
2022-10-15T15:18:49.072Z,13.73
2022-10-15T15:19:54.923Z,13.74
2022-10-15T15:21:04.703Z,13.72
2022-10-15T15:22:09.917Z,13.74
2022-10-15T15:23:30.060Z,13.73
2022-10-15T15:24:33.507Z,13.78
2022-10-15T15:25:45.835Z,13.79
2022-10-15T15:26:48.774Z,13.81
2022-10-15T15:27:56.409Z,13.80
2022-10-15T15:29:02.563Z,13.85
2022-10-15T15:30:19.740Z,13.92
2022-10-15T15:31:29.414Z,13.97
2022-10-15T15:32:35.305Z,14.00
2022-10-15T15:33:41.627Z,14.02
2022-10-15T15:34:48.563Z,14.03
2022-10-15T15:35:59.686Z,14.02
2022-10-15T15:37:03.374Z,14.01
2022-10-15T15:38:11.496Z,14.01
2022-10-15T15:39:14.578Z,14.02
2022-10-15T15:40:20.835Z,13.97
2022-10-15T15:41:27.632Z,14.01
2022-10-15T15:42:33.600Z,13.95
2022-10-15T15:43:39.413Z,13.93
2022-10-15T15:44:52.133Z,13.99
2022-10-15T15:45:57.088Z,13.98
2022-10-15T15:47:03.429Z,13.98
2022-10-15T15:48:09.312Z,14.01
2022-10-15T15:49:12.840Z,14.01
2022-10-15T15:50:21.529Z,13.94
2022-10-15T15:51:28.326Z,13.94
2022-10-15T15:52:38.787Z,13.92
2022-10-15T15:53:46.640Z,13.87
2022-10-15T15:54:55.284Z,13.82
2022-10-15T15:56:04.283Z,13.84
2022-10-15T15:57:11.547Z,13.85
2022-10-15T15:58:18.057Z,13.83
2022-10-15T15:59:25.514Z,13.80
2022-10-15T16:00:31.359Z,13.79
2022-10-15T16:01:37.123Z,13.81
2022-10-15T16:02:46.924Z,13.79
2022-10-15T16:03:52.622Z,13.76
2022-10-15T16:05:04.801Z,13.76
2022-10-15T16:06:09.307Z,13.78
2022-10-15T16:07:18.994Z,13.78
2022-10-15T16:08:26.103Z,13.73
2022-10-15T16:09:37.218Z,13.72
2022-10-15T16:10:41.010Z,13.72
2022-10-15T16:11:51.970Z,13.65
2022-10-15T16:12:56.998Z,13.61
2022-10-15T16:14:09.495Z,13.57
2022-10-15T16:15:14.926Z,13.54
2022-10-15T16:16:24.894Z,13.54
2022-10-15T16:17:27.825Z,13.55
2022-10-15T16:18:37.821Z,13.58
2022-10-15T16:19:48.088Z,13.53
2022-10-15T16:20:51.952Z,13.47
2022-10-15T16:22:04.092Z,13.44
2022-10-15T16:23:06.566Z,13.40
2022-10-15T16:24:13.115Z,13.41
2022-10-15T16:25:16.655Z,13.40
2022-10-15T16:26:25.613Z,13.38
2022-10-15T16:27:35.757Z,13.34
2022-10-15T16:28:39.166Z,13.30
2022-10-15T16:29:51.288Z,13.28
2022-10-15T16:30:56.747Z,13.30
2022-10-15T16:32:03.121Z,13.29
2022-10-15T16:34:17.719Z,13.26
2022-10-15T16:35:23.167Z,13.23
2022-10-15T16:36:30.000Z,13.28
2022-10-15T16:37:36.524Z,13.30
2022-10-15T16:38:48.597Z,13.32
2022-10-15T16:39:51.994Z,13.28
2022-10-15T16:41:02.067Z,13.29
2022-10-15T16:42:06.123Z,13.26
2022-10-15T16:43:15.295Z,13.31
2022-10-15T16:44:18.360Z,13.23
2022-10-15T16:45:23.855Z,13.19
2022-10-15T16:46:30.654Z,13.14
2022-10-15T16:47:33.945Z,13.10
2022-10-15T16:48:39.698Z,13.06
2022-10-15T16:49:46.679Z,13.12
2022-10-15T16:51:02.503Z,13.13
2022-10-15T16:52:09.939Z,13.12
2022-10-15T16:53:17.901Z,13.10
2022-10-15T16:54:26.412Z,13.09
2022-10-15T16:55:32.398Z,13.12
2022-10-15T16:56:38.498Z,13.23
2022-10-15T16:57:42.390Z,13.18
2022-10-15T16:58:48.228Z,13.13
2022-10-15T16:59:51.921Z,13.13
2022-10-15T17:01:08.799Z,13.11
2022-10-15T17:02:12.604Z,13.06
2022-10-15T17:03:18.136Z,13.03
2022-10-15T17:04:23.722Z,13.00
2022-10-15T17:05:29.524Z,12.94
2022-10-15T17:06:37.177Z,12.88
2022-10-15T17:07:41.285Z,12.83
2022-10-15T17:08:52.070Z,12.85
2022-10-15T17:09:55.312Z,12.81
2022-10-15T17:11:12.581Z,12.79
2022-10-15T17:12:23.955Z,12.87
2022-10-15T17:13:28.011Z,12.83
2022-10-15T17:14:34.095Z,12.80
2022-10-15T17:15:37.324Z,12.76
2022-10-15T17:16:45.011Z,12.76
2022-10-15T17:17:50.403Z,12.76
2022-10-15T17:18:57.883Z,12.78
2022-10-15T17:20:21.591Z,12.83
2022-10-15T17:21:46.963Z,12.94
2022-10-15T17:22:52.077Z,12.97
2022-10-15T17:24:03.548Z,13.02
2022-10-15T17:25:11.171Z,13.01
2022-10-15T17:26:19.663Z,13.03
2022-10-15T17:27:27.038Z,13.03
2022-10-15T17:28:32.824Z,13.03
2022-10-15T17:29:40.178Z,13.07
2022-10-15T17:30:43.697Z,13.08
2022-10-15T17:31:50.826Z,13.07
2022-10-15T17:32:54.562Z,13.06
2022-10-15T17:34:03.975Z,13.05
2022-10-15T17:35:10.007Z,13.08
2022-10-15T17:36:20.078Z,13.13
2022-10-15T17:37:26.985Z,13.15
2022-10-15T17:38:37.296Z,13.22
2022-10-15T17:39:44.962Z,13.24
2022-10-15T17:40:54.467Z,13.21
2022-10-15T17:42:03.731Z,13.21
2022-10-15T17:43:14.062Z,13.23
2022-10-15T17:44:25.892Z,13.21
2022-10-15T17:45:30.353Z,13.21
2022-10-15T17:46:42.977Z,13.21
2022-10-15T17:47:47.106Z,13.23
2022-10-15T17:49:09.053Z,13.26
2022-10-15T17:50:15.401Z,13.28
2022-10-15T17:51:22.364Z,13.33
2022-10-15T17:52:32.919Z,13.41
2022-10-15T17:53:35.345Z,13.41
2022-10-15T17:54:40.063Z,13.45
2022-10-15T17:55:42.884Z,13.46
2022-10-15T17:56:49.087Z,13.45
2022-10-15T17:57:51.480Z,13.45
2022-10-15T17:58:56.984Z,13.49
2022-10-15T17:59:59.191Z,13.46
2022-10-15T18:01:04.187Z,13.45
2022-10-15T18:02:10.112Z,13.46
2022-10-15T18:03:13.283Z,13.47
2022-10-15T18:04:18.042Z,13.51
2022-10-15T18:05:20.288Z,13.51
2022-10-15T18:06:27.062Z,13.46
2022-10-15T18:07:32.147Z,13.44
2022-10-15T18:08:37.466Z,13.46
2022-10-15T18:09:45.283Z,13.44
2022-10-15T18:10:56.186Z,13.39
2022-10-15T18:12:05.847Z,13.45
2022-10-15T18:13:09.452Z,13.46
2022-10-15T18:14:16.296Z,13.41
2022-10-15T18:15:26.925Z,13.37
2022-10-15T18:16:44.671Z,13.37
2022-10-15T18:17:46.880Z,13.34
2022-10-15T18:18:52.244Z,13.31
2022-10-15T18:19:57.178Z,13.26
2022-10-15T18:21:03.754Z,13.28
2022-10-15T18:22:09.945Z,13.29
2022-10-15T18:23:18.679Z,13.26
2022-10-15T18:24:22.261Z,13.24
2022-10-15T18:25:27.074Z,13.20
2022-10-15T18:26:29.456Z,13.20
2022-10-15T18:27:38.286Z,13.21
2022-10-15T18:28:42.844Z,13.19
2022-10-15T18:29:48.147Z,13.16
2022-10-15T18:30:50.411Z,13.16
2022-10-15T18:31:58.208Z,13.15
2022-10-15T18:33:00.572Z,13.15
2022-10-15T18:34:05.533Z,13.13
2022-10-15T18:35:08.457Z,13.14
2022-10-15T18:36:16.540Z,13.16
2022-10-15T18:37:21.495Z,13.14
2022-10-15T18:38:26.239Z,13.15
2022-10-15T18:39:31.033Z,13.24
2022-10-15T18:40:36.225Z,13.29
2022-10-15T18:43:09.487Z,13.24
2022-10-15T18:44:16.740Z,13.21
2022-10-15T18:45:21.663Z,13.21
2022-10-15T18:46:24.528Z,13.18
2022-10-15T18:47:29.559Z,13.15
2022-10-15T18:48:32.937Z,13.13
2022-10-15T18:49:38.878Z,13.10
2022-10-15T18:50:42.613Z,13.15
2022-10-15T18:51:51.831Z,13.15
2022-10-15T18:52:54.293Z,13.11
2022-10-15T18:54:01.986Z,13.09
2022-10-15T18:55:05.032Z,13.08
2022-10-15T18:56:13.014Z,13.10
2022-10-15T18:57:18.423Z,13.15
2022-10-15T18:58:20.619Z,13.13
2022-10-15T18:59:25.528Z,13.10
2022-10-15T19:00:28.597Z,13.09
2022-10-15T19:01:35.546Z,13.12
2022-10-15T19:02:37.919Z,13.14
2022-10-15T19:03:42.687Z,13.15
2022-10-15T19:04:44.827Z,13.21
2022-10-15T19:05:51.146Z,13.20
2022-10-15T19:06:54.734Z,13.20
2022-10-15T19:07:59.393Z,13.19
2022-10-15T19:09:07.366Z,13.19
2022-10-15T19:10:15.272Z,13.18
2022-10-15T19:11:20.379Z,13.19
2022-10-15T19:12:26.344Z,13.17
2022-10-15T19:13:28.718Z,13.14
2022-10-15T19:14:33.557Z,13.14
2022-10-15T19:15:36.365Z,13.13
2022-10-15T19:16:43.568Z,13.14
2022-10-15T19:17:47.154Z,13.16
2022-10-15T19:18:53.617Z,13.19
2022-10-15T19:19:59.084Z,13.18
2022-10-15T19:21:06.799Z,13.18
2022-10-15T19:22:12.694Z,13.22
2022-10-15T19:23:15.783Z,13.23
2022-10-15T19:24:25.659Z,13.34
2022-10-15T19:25:28.027Z,13.32
2022-10-15T19:26:33.418Z,13.29
2022-10-15T19:27:36.370Z,13.28
2022-10-15T19:28:42.626Z,13.27
2022-10-15T19:29:44.944Z,13.25
2022-10-15T19:30:58.078Z,13.23
2022-10-15T19:32:04.151Z,13.27
2022-10-15T19:33:08.717Z,13.26
2022-10-15T19:34:16.374Z,13.25
2022-10-15T19:35:20.970Z,13.24
2022-10-15T19:36:28.393Z,13.23
2022-10-15T19:37:43.963Z,13.21
2022-10-15T19:38:53.055Z,13.20
2022-10-15T19:43:50.060Z,13.25
2022-10-15T19:44:55.497Z,13.25
